Time,TemperatureF,DewpointF,PressureIn,WindDirection,WindDirectionDegrees,WindSpeedMPH,WindSpeedGustMPH,Humidity,HourlyPrecipIn,Conditions,Clouds,dailyrainin,SolarRadiationWatts/m^2,SoftwareType,DateUTC
2013-03-07 00:02:00,33.0,33.0,-100.00,WSW,249,5.0,7.0,100,0.01,,,0.18,0.800000,,2013-03-07 09:02:00,
2013-03-07 00:11:00,33.0,33.0,-100.00,WSW,249,5.0,7.0,100,0.01,,,0.18,0.800000,,2013-03-07 09:11:00,
2013-03-07 00:21:00,33.0,33.0,-100.00,WSW,249,5.0,7.0,100,0.01,,,0.18,0.800000,,2013-03-07 09:21:00,
2013-03-07 00:53:00,32.0,32.0,-100.00,WSW,238,4.0,7.0,100,0.00,,,0.18,0.800000,,2013-03-07 09:53:00,
2013-03-07 01:02:00,32.0,32.0,-100.00,WSW,238,4.0,7.0,100,0.00,,,0.18,0.800000,,2013-03-07 10:02:00,
2013-03-07 01:12:00,32.0,32.0,-100.00,WSW,238,4.0,7.0,100,0.00,,,0.18,0.800000,,2013-03-07 10:12:00,
2013-03-07 01:22:00,32.0,32.0,-100.00,WSW,238,4.0,7.0,100,0.00,,,0.18,0.800000,,2013-03-07 10:22:00,
2013-03-07 01:53:00,32.0,32.0,-100.00,SW,235,4.0,7.0,100,0.00,,,-99.99,0.800000,,2013-03-07 10:53:00,
2013-03-07 02:02:00,32.0,32.0,-100.00,SW,235,4.0,7.0,100,0.00,,,-99.99,0.800000,,2013-03-07 11:02:00,
2013-03-07 02:11:00,32.0,32.0,-100.00,SW,235,4.0,7.0,100,0.00,,,-99.99,0.800000,,2013-03-07 11:11:00,
2013-03-07 02:22:00,32.0,32.0,-100.00,SW,235,4.0,7.0,100,0.00,,,-99.99,0.800000,,2013-03-07 11:22:00,
2013-03-07 02:54:00,32.0,32.0,-100.00,SW,219,2.0,8.0,100,0.00,,,0.18,0.800000,,2013-03-07 11:54:00,
2013-03-07 03:02:00,32.0,32.0,-100.00,SW,219,2.0,8.0,100,0.00,,,0.18,0.800000,,2013-03-07 12:02:00,
2013-03-07 03:11:00,32.0,32.0,-100.00,SW,219,2.0,8.0,100,0.00,,,0.18,0.800000,,2013-03-07 12:11:00,
2013-03-07 03:21:00,32.0,32.0,-100.00,SW,219,2.0,8.0,100,0.00,,,0.18,0.800000,,2013-03-07 12:21:00,
2013-03-07 03:52:00,34.0,34.0,-100.00,East,96,14.0,14.0,100,0.02,,,0.20,0.800000,,2013-03-07 12:52:00,
2013-03-07 04:02:00,34.0,34.0,-100.00,East,96,14.0,14.0,100,0.02,,,0.20,0.800000,,2013-03-07 13:02:00,
2013-03-07 04:12:00,34.0,34.0,-100.00,East,96,14.0,14.0,100,0.02,,,0.20,0.800000,,2013-03-07 13:12:00,
2013-03-07 04:21:00,34.0,34.0,-100.00,East,96,14.0,14.0,100,0.02,,,0.20,0.800000,,2013-03-07 13:21:00,
2013-03-07 04:53:00,35.0,33.0,-100.00,ESE,121,14.0,30.0,93,0.13,,,0.33,0.800000,,2013-03-07 13:53:00,
2013-03-07 05:01:00,35.0,33.0,-100.00,ESE,121,14.0,30.0,93,0.13,,,0.33,0.800000,,2013-03-07 14:01:00,
2013-03-07 05:11:00,35.0,33.0,-100.00,ESE,121,14.0,30.0,93,0.13,,,0.33,0.800000,,2013-03-07 14:11:00,
2013-03-07 05:53:00,36.0,33.0,-100.00,ESE,106,24.0,32.0,91,0.12,,,0.45,0.800000,,2013-03-07 14:53:00,
2013-03-07 06:02:00,36.0,33.0,-100.00,ESE,106,24.0,32.0,91,0.12,,,0.45,0.800000,,2013-03-07 15:02:00,
2013-03-07 06:11:00,36.0,33.0,-100.00,ESE,106,24.0,32.0,91,0.12,,,0.45,0.800000,,2013-03-07 15:11:00,
2013-03-07 06:22:00,36.0,33.0,-100.00,ESE,106,24.0,32.0,91,0.12,,,0.45,0.800000,,2013-03-07 15:22:00,
2013-03-07 06:53:00,35.0,33.0,-100.00,ESE,107,18.0,42.0,93,0.03,,,0.48,0.700000,,2013-03-07 15:53:00,
2013-03-07 07:01:00,35.0,33.0,-100.00,ESE,107,18.0,42.0,93,0.03,,,0.48,0.700000,,2013-03-07 16:01:00,
2013-03-07 07:12:00,35.0,33.0,-100.00,ESE,107,18.0,42.0,93,0.03,,,0.48,0.700000,,2013-03-07 16:12:00,
2013-03-07 07:22:00,35.0,33.0,-100.00,ESE,107,18.0,42.0,93,0.03,,,0.48,0.700000,,2013-03-07 16:22:00,
2013-03-07 07:53:00,35.0,32.0,-100.00,East,99,22.0,42.0,91,0.01,,,0.49,0.700000,,2013-03-07 16:53:00,
2013-03-07 08:02:00,35.0,32.0,-100.00,East,99,22.0,42.0,91,0.01,,,0.49,0.700000,,2013-03-07 17:02:00,
2013-03-07 08:11:00,35.0,32.0,-100.00,East,99,22.0,42.0,91,0.01,,,0.49,0.700000,,2013-03-07 17:11:00,
2013-03-07 08:22:00,35.0,32.0,-100.00,East,99,22.0,42.0,91,0.01,,,0.49,0.700000,,2013-03-07 17:22:00,
2013-03-07 08:54:00,34.0,32.0,-100.00,East,98,25.0,57.0,90,0.00,,,0.49,5.300000,,2013-03-07 17:54:00,
2013-03-07 09:02:00,34.0,32.0,-100.00,East,98,25.0,57.0,90,0.00,,,0.49,5.300000,,2013-03-07 18:02:00,
2013-03-07 09:11:00,34.0,32.0,-100.00,East,98,25.0,57.0,90,0.00,,,0.49,5.300000,,2013-03-07 18:11:00,
2013-03-07 09:21:00,34.0,32.0,-100.00,East,98,25.0,57.0,90,0.00,,,0.49,5.300000,,2013-03-07 18:21:00,
2013-03-07 09:52:00,34.0,31.0,-100.00,ESE,105,34.0,51.0,87,0.01,,,0.50,23.500000,,2013-03-07 18:52:00,
2013-03-07 10:02:00,34.0,31.0,-100.00,ESE,105,34.0,51.0,87,0.01,,,0.50,23.500000,,2013-03-07 19:02:00,
2013-03-07 10:11:00,34.0,31.0,-100.00,ESE,105,34.0,51.0,87,0.01,,,0.50,23.500000,,2013-03-07 19:11:00,
2013-03-07 10:21:00,34.0,31.0,-100.00,ESE,105,34.0,51.0,87,0.01,,,0.50,23.500000,,2013-03-07 19:21:00,
2013-03-07 10:53:00,34.0,31.0,-100.00,ESE,102,35.0,65.0,89,0.00,,,0.50,53.299999,,2013-03-07 19:53:00,
2013-03-07 11:01:00,34.0,31.0,-100.00,ESE,102,35.0,65.0,89,0.00,,,0.50,53.299999,,2013-03-07 20:01:00,
2013-03-07 11:12:00,34.0,31.0,-100.00,ESE,102,35.0,65.0,89,0.00,,,0.50,53.299999,,2013-03-07 20:12:00,
2013-03-07 11:21:00,34.0,31.0,-100.00,ESE,102,35.0,65.0,89,0.00,,,0.50,53.299999,,2013-03-07 20:21:00,
2013-03-07 11:54:00,35.0,30.0,-100.00,ESE,109,38.0,68.0,80,0.00,,,0.46,55.099998,,2013-03-07 20:54:00,
2013-03-07 12:02:00,35.0,30.0,-100.00,ESE,109,38.0,68.0,80,0.00,,,0.46,55.099998,,2013-03-07 21:02:00,
2013-03-07 12:11:00,35.0,30.0,-100.00,ESE,109,38.0,68.0,80,0.00,,,0.46,55.099998,,2013-03-07 21:11:00,
2013-03-07 12:22:00,35.0,30.0,-100.00,ESE,109,38.0,68.0,80,0.00,,,0.46,55.099998,,2013-03-07 21:22:00,
2013-03-07 12:53:00,34.0,31.0,-100.00,ESE,107,22.0,67.0,91,0.00,,,0.44,36.099998,,2013-03-07 21:53:00,
2013-03-07 13:01:00,34.0,31.0,-100.00,ESE,107,22.0,67.0,91,0.00,,,0.44,36.099998,,2013-03-07 22:01:00,
2013-03-07 13:11:00,34.0,31.0,-100.00,ESE,107,22.0,67.0,91,0.00,,,0.44,36.099998,,2013-03-07 22:11:00,
2013-03-07 13:22:00,34.0,31.0,-100.00,ESE,107,22.0,67.0,91,0.00,,,0.44,36.099998,,2013-03-07 22:22:00,
2013-03-07 13:54:00,33.0,32.0,-100.00,East,100,32.0,64.0,96,0.02,,,0.41,27.000000,,2013-03-07 22:54:00,
2013-03-07 14:02:00,33.0,32.0,-100.00,East,100,32.0,64.0,96,0.02,,,0.41,27.000000,,2013-03-07 23:02:00,
2013-03-07 14:12:00,33.0,32.0,-100.00,East,100,32.0,64.0,96,0.02,,,0.41,27.000000,,2013-03-07 23:12:00,
2013-03-07 14:21:00,33.0,32.0,-100.00,East,100,32.0,64.0,96,0.02,,,0.41,27.000000,,2013-03-07 23:21:00,
2013-03-07 14:53:00,32.0,32.0,-100.00,SE,127,13.0,60.0,99,0.01,,,0.41,25.400000,,2013-03-07 23:53:00,
2013-03-07 15:03:00,32.0,32.0,-100.00,SE,127,13.0,60.0,99,0.01,,,0.41,25.400000,,2013-03-08 00:03:00,
2013-03-07 15:12:00,32.0,32.0,-100.00,SE,127,13.0,60.0,99,0.01,,,0.41,25.400000,,2013-03-08 00:12:00,
2013-03-07 15:22:00,32.0,32.0,-100.00,SE,127,13.0,60.0,99,0.01,,,0.41,25.400000,,2013-03-08 00:22:00,
2013-03-07 15:53:00,32.0,32.0,-100.00,ESE,106,14.0,41.0,99,0.00,,,0.40,30.200001,,2013-03-08 00:53:00,
2013-03-07 16:01:00,32.0,32.0,-100.00,ESE,106,14.0,41.0,99,0.00,,,0.40,30.200001,,2013-03-08 01:01:00,
2013-03-07 16:11:00,32.0,32.0,-100.00,ESE,106,14.0,41.0,99,0.00,,,0.40,30.200001,,2013-03-08 01:11:00,
2013-03-07 16:21:00,32.0,32.0,-100.00,ESE,106,14.0,41.0,99,0.00,,,0.40,30.200001,,2013-03-08 01:21:00,
2013-03-07 16:52:00,32.0,31.0,-100.00,East,100,15.0,28.0,99,0.00,,,0.39,25.000000,,2013-03-08 01:52:00,
2013-03-07 17:01:00,32.0,31.0,-100.00,East,100,15.0,28.0,99,0.00,,,0.39,25.000000,,2013-03-08 02:01:00,
2013-03-07 17:11:00,32.0,31.0,-100.00,East,100,15.0,28.0,99,0.00,,,0.39,25.000000,,2013-03-08 02:11:00,
2013-03-07 17:21:00,32.0,31.0,-100.00,East,100,15.0,28.0,99,0.00,,,0.39,25.000000,,2013-03-08 02:21:00,
2013-03-07 18:02:00,32.0,32.0,-100.00,East,96,25.0,32.0,100,0.00,,,0.38,13.200000,,2013-03-08 03:02:00,
2013-03-07 18:11:00,32.0,32.0,-100.00,East,96,25.0,32.0,100,0.00,,,0.38,13.200000,,2013-03-08 03:11:00,
2013-03-07 18:22:00,32.0,32.0,-100.00,East,96,25.0,32.0,100,0.00,,,0.38,13.200000,,2013-03-08 03:22:00,
2013-03-07 18:52:00,32.0,32.0,-100.00,ENE,72,17.0,49.0,100,0.00,,,0.37,6.900000,,2013-03-08 03:52:00,
2013-03-07 19:01:00,32.0,32.0,-100.00,ENE,72,17.0,49.0,100,0.00,,,0.37,6.900000,,2013-03-08 04:01:00,
2013-03-07 19:11:00,32.0,32.0,-100.00,ENE,72,17.0,49.0,100,0.00,,,0.37,6.900000,,2013-03-08 04:11:00,
2013-03-07 19:21:00,32.0,32.0,-100.00,ENE,72,17.0,49.0,100,0.00,,,0.37,6.900000,,2013-03-08 04:21:00,
2013-03-07 19:52:00,33.0,32.0,-100.00,East,84,16.0,39.0,99,0.00,,,-99.99,1.700000,,2013-03-08 04:52:00,
2013-03-07 20:01:00,33.0,32.0,-100.00,East,84,16.0,39.0,99,0.00,,,-99.99,1.700000,,2013-03-08 05:01:00,
2013-03-07 20:12:00,33.0,32.0,-100.00,East,84,16.0,39.0,99,0.00,,,-99.99,1.700000,,2013-03-08 05:12:00,
2013-03-07 20:22:00,33.0,32.0,-100.00,East,84,16.0,39.0,99,0.00,,,-99.99,1.700000,,2013-03-08 05:22:00,
2013-03-07 20:52:00,33.0,32.0,-100.00,East,94,9.0,43.0,99,0.06,,,0.43,0.800000,,2013-03-08 05:52:00,
2013-03-07 21:01:00,33.0,32.0,-100.00,East,94,9.0,43.0,99,0.06,,,0.43,0.800000,,2013-03-08 06:01:00,
2013-03-07 21:11:00,33.0,32.0,-100.00,East,94,9.0,43.0,99,0.06,,,0.43,0.800000,,2013-03-08 06:11:00,
2013-03-07 21:21:00,33.0,32.0,-100.00,East,94,9.0,43.0,99,0.06,,,0.43,0.800000,,2013-03-08 06:21:00,
2013-03-07 21:52:00,33.0,33.0,-100.00,East,90,15.0,32.0,99,0.05,,,0.48,0.800000,,2013-03-08 06:52:00,
2013-03-07 22:01:00,33.0,33.0,-100.00,East,90,15.0,32.0,99,0.05,,,0.48,0.800000,,2013-03-08 07:01:00,
2013-03-07 22:11:00,33.0,33.0,-100.00,East,90,15.0,32.0,99,0.05,,,0.48,0.800000,,2013-03-08 07:11:00,
2013-03-07 22:21:00,33.0,33.0,-100.00,East,90,15.0,32.0,99,0.05,,,0.48,0.800000,,2013-03-08 07:21:00,
2013-03-07 22:52:00,33.0,33.0,-100.00,ESE,107,11.0,31.0,99,0.05,,,0.52,0.800000,,2013-03-08 07:52:00,
2013-03-07 23:01:00,33.0,33.0,-100.00,ESE,107,11.0,31.0,99,0.05,,,0.52,0.800000,,2013-03-08 08:01:00,
2013-03-07 23:11:00,33.0,33.0,-100.00,ESE,107,11.0,31.0,99,0.05,,,0.52,0.800000,,2013-03-08 08:11:00,
2013-03-07 23:21:00,33.0,33.0,-100.00,ESE,107,11.0,31.0,99,0.05,,,0.52,0.800000,,2013-03-08 08:21:00,
2013-03-07 23:52:00,32.0,32.0,-100.00,WSW,242,6.0,23.0,100,0.02,,,0.53,0.800000,,2013-03-08 08:52:00,